createdAt,value
2022-08-07T00:00:23.930Z,102778.19
2022-08-07T00:02:51.057Z,102780.06
2022-08-07T00:05:20.049Z,102782.88
2022-08-07T00:07:47.037Z,102781.81
2022-08-07T00:10:25.859Z,102773.00
2022-08-07T00:12:59.973Z,102770.34
2022-08-07T00:15:38.423Z,102769.47
2022-08-07T00:18:19.173Z,102761.38
2022-08-07T00:20:49.473Z,102762.44
2022-08-07T00:23:17.225Z,102764.41
2022-08-07T00:25:45.771Z,102760.94
2022-08-07T00:28:18.617Z,102757.34
2022-08-07T00:30:48.473Z,102765.66
2022-08-07T00:33:15.744Z,102765.72
2022-08-07T00:35:45.382Z,102766.50
2022-08-07T00:38:14.138Z,102760.25
2022-08-07T00:40:41.956Z,102762.13
2022-08-07T00:44:00.579Z,102763.19
2022-08-07T00:46:00.266Z,102755.19
2022-08-07T00:48:31.751Z,102761.59
2022-08-07T00:51:00.399Z,102756.19
2022-08-07T00:53:27.313Z,102761.66
2022-08-07T00:56:13.818Z,102756.28
2022-08-07T00:58:46.907Z,102757.25
2022-08-07T01:01:14.623Z,102755.47
2022-08-07T01:03:56.314Z,102756.44
2022-08-07T01:06:30.189Z,102753.00
2022-08-07T01:09:00.634Z,102746.66
2022-08-07T01:12:09.387Z,102747.59
2022-08-07T01:14:28.714Z,102742.19
2022-08-07T01:16:56.084Z,102747.72
2022-08-07T01:19:22.984Z,102749.56
2022-08-07T01:21:53.053Z,102745.22
2022-08-07T01:24:21.626Z,102741.69
2022-08-07T01:26:51.937Z,102747.22
2022-08-07T01:29:19.781Z,102744.69
2022-08-07T01:31:46.301Z,102741.09
2022-08-07T01:34:17.830Z,102748.53
2022-08-07T01:36:52.717Z,102737.09
2022-08-07T01:39:39.616Z,102740.69
2022-08-07T01:42:39.718Z,102736.25
2022-08-07T01:45:04.918Z,102735.56
2022-08-07T01:48:18.365Z,102736.38
2022-08-07T01:50:28.929Z,102734.59
2022-08-07T01:52:58.395Z,102734.59
2022-08-07T01:55:37.601Z,102735.50
2022-08-07T01:58:29.303Z,102724.00
2022-08-07T02:01:09.713Z,102732.06
2022-08-07T02:03:48.805Z,102725.78
2022-08-07T02:06:31.666Z,102723.22
2022-08-07T02:09:01.653Z,102728.81
2022-08-07T02:12:03.268Z,102729.97
2022-08-07T02:14:36.366Z,102729.22
2022-08-07T02:17:08.494Z,102727.56
2022-08-07T02:20:04.181Z,102732.84
2022-08-07T02:22:25.780Z,102728.41
2022-08-07T02:24:54.636Z,102732.97
2022-08-07T02:27:23.252Z,102726.75
2022-08-07T02:29:54.355Z,102723.31
2022-08-07T02:32:23.495Z,102733.28
2022-08-07T02:34:54.510Z,102723.53
2022-08-07T02:37:23.328Z,102718.13
2022-08-07T02:40:02.256Z,102728.06
2022-08-07T02:42:38.625Z,102720.88
2022-08-07T02:45:55.899Z,102725.44
2022-08-07T02:47:54.706Z,102719.28
2022-08-07T02:50:26.277Z,102722.06
2022-08-07T02:53:06.352Z,102720.19
2022-08-07T02:56:02.451Z,102721.06
2022-08-07T02:58:27.344Z,102721.25
2022-08-07T03:00:57.314Z,102714.19
2022-08-07T03:03:42.158Z,102707.00
2022-08-07T03:06:16.314Z,102715.06
2022-08-07T03:08:43.686Z,102709.69
2022-08-07T03:11:11.035Z,102717.88
2022-08-07T03:13:38.690Z,102701.75
2022-08-07T03:16:06.106Z,102705.25
2022-08-07T03:18:34.797Z,102705.28
2022-08-07T03:21:08.480Z,102711.69
2022-08-07T03:24:19.660Z,102702.63
2022-08-07T03:26:28.219Z,102698.06
2022-08-07T03:28:56.842Z,102702.59
2022-08-07T03:31:42.258Z,102712.56
2022-08-07T03:34:18.493Z,102706.50
2022-08-07T03:36:50.562Z,102706.72
2022-08-07T03:39:42.038Z,102697.78
2022-08-07T03:42:06.922Z,102692.47
2022-08-07T03:44:35.955Z,102697.91
2022-08-07T03:47:13.893Z,102687.22
2022-08-07T03:49:42.395Z,102694.53
2022-08-07T03:52:22.517Z,102695.63
2022-08-07T03:54:55.140Z,102695.66
2022-08-07T03:58:32.542Z,102701.03
2022-08-07T04:00:14.322Z,102699.31
2022-08-07T04:02:47.481Z,102700.16
2022-08-07T04:05:15.827Z,102706.25
2022-08-07T04:07:47.624Z,102694.78
2022-08-07T04:10:15.674Z,102702.03
2022-08-07T04:12:47.933Z,102697.50
2022-08-07T04:15:15.825Z,102696.53
2022-08-07T04:18:58.353Z,102688.56
2022-08-07T04:20:31.261Z,102685.00
2022-08-07T04:23:02.205Z,102679.59
2022-08-07T04:25:39.222Z,102679.63
2022-08-07T04:28:13.391Z,102690.38
2022-08-07T04:30:55.491Z,102699.25
2022-08-07T04:33:25.192Z,102706.19
2022-08-07T04:35:53.935Z,102700.72
2022-08-07T04:38:21.911Z,102699.69
2022-08-07T04:40:51.875Z,102695.16
2022-08-07T04:44:13.170Z,102691.53
2022-08-07T04:46:29.486Z,102701.19
2022-08-07T04:49:18.053Z,102691.13
2022-08-07T04:52:00.143Z,102694.53
2022-08-07T04:55:15.463Z,102708.75
2022-08-07T04:58:12.544Z,102696.63
2022-08-07T05:01:20.384Z,102707.00
2022-08-07T05:04:19.094Z,102703.03
2022-08-07T05:07:19.666Z,102710.75
2022-08-07T05:09:49.769Z,102707.00
2022-08-07T05:12:26.786Z,102704.16
2022-08-07T05:15:15.972Z,102705.34
2022-08-07T05:18:16.351Z,102709.22
2022-08-07T05:20:49.243Z,102706.91
2022-08-07T05:23:29.022Z,102712.59
2022-08-07T05:26:11.701Z,102712.31
2022-08-07T05:28:48.730Z,102716.50
2022-08-07T05:31:20.012Z,102713.16
2022-08-07T05:33:51.381Z,102719.75
2022-08-07T05:36:35.306Z,102714.25
2022-08-07T05:39:08.943Z,102713.72
2022-08-07T05:42:01.446Z,102712.03
2022-08-07T05:44:33.428Z,102712.59
2022-08-07T05:47:01.394Z,102704.88
2022-08-07T05:49:40.526Z,102711.66
2022-08-07T05:52:08.685Z,102717.41
2022-08-07T05:54:44.459Z,102721.19
2022-08-07T05:57:21.019Z,102728.69
2022-08-07T05:59:57.971Z,102720.28
2022-08-07T06:02:29.598Z,102728.03
2022-08-07T06:05:03.382Z,102724.19
2022-08-07T06:08:09.183Z,102729.19
2022-08-07T06:10:18.240Z,102734.16
2022-08-07T06:12:45.536Z,102733.19
2022-08-07T06:15:16.235Z,102735.38
2022-08-07T06:17:53.684Z,102738.19
2022-08-07T06:20:32.088Z,102728.75
2022-08-07T06:23:45.781Z,102729.00
2022-08-07T06:25:58.707Z,102727.84
2022-08-07T06:28:27.493Z,102721.66
2022-08-07T06:30:55.655Z,102727.50
2022-08-07T06:33:22.921Z,102729.75
2022-08-07T06:36:06.900Z,102735.69
2022-08-07T06:38:36.331Z,102741.94
2022-08-07T06:41:09.814Z,102734.25
2022-08-07T06:43:46.558Z,102726.75
2022-08-07T06:46:31.384Z,102731.78
2022-08-07T06:49:04.370Z,102723.78
2022-08-07T06:51:34.715Z,102729.25
2022-08-07T06:55:29.987Z,102725.75
2022-08-07T06:56:51.006Z,102725.78
2022-08-07T07:00:11.855Z,102719.34
2022-08-07T07:02:48.567Z,102714.53
2022-08-07T07:05:03.468Z,102711.22
2022-08-07T07:07:58.399Z,102720.47
2022-08-07T07:10:26.937Z,102721.13
2022-08-07T07:12:59.820Z,102720.22
2022-08-07T07:15:36.021Z,102718.66
2022-08-07T07:18:08.608Z,102717.16
2022-08-07T07:20:45.750Z,102713.22
2022-08-07T07:24:09.624Z,102718.91
2022-08-07T07:26:33.920Z,102712.34
2022-08-07T07:29:56.108Z,102711.66
2022-08-07T07:31:47.053Z,102709.41
2022-08-07T07:34:18.109Z,102717.41
2022-08-07T07:36:47.927Z,102717.66
2022-08-07T07:39:22.631Z,102712.13
2022-08-07T07:42:08.838Z,102719.53
2022-08-07T07:44:43.452Z,102715.09
2022-08-07T07:47:15.970Z,102707.97
2022-08-07T07:50:35.829Z,102713.25
2022-08-07T07:52:39.556Z,102714.59
2022-08-07T07:55:09.066Z,102712.81
2022-08-07T07:57:52.586Z,102707.31
2022-08-07T08:00:29.468Z,102712.66
2022-08-07T08:03:16.737Z,102724.16
2022-08-07T08:05:57.206Z,102718.41
2022-08-07T08:08:35.088Z,102714.94
2022-08-07T08:11:09.331Z,102718.53
2022-08-07T08:13:53.352Z,102716.25
2022-08-07T08:16:29.997Z,102715.72
2022-08-07T08:19:00.537Z,102725.59
2022-08-07T08:22:06.008Z,102716.66
2022-08-07T08:25:18.342Z,102717.06
2022-08-07T08:27:57.114Z,102712.41
2022-08-07T08:30:29.563Z,102712.97
2022-08-07T08:33:02.961Z,102717.91
2022-08-07T08:35:39.099Z,102707.63
2022-08-07T08:38:16.766Z,102710.31
2022-08-07T08:40:49.614Z,102711.25
2022-08-07T08:43:42.688Z,102704.22
2022-08-07T08:46:28.880Z,102704.22
2022-08-07T08:49:09.775Z,102703.97
2022-08-07T08:52:01.163Z,102703.03
2022-08-07T08:54:41.441Z,102708.53
2022-08-07T08:57:21.426Z,102710.03
2022-08-07T09:00:01.714Z,102689.66
2022-08-07T09:02:41.811Z,102698.81
2022-08-07T09:05:40.757Z,102699.84
2022-08-07T09:08:28.447Z,102698.19
2022-08-07T09:11:10.707Z,102701.91
2022-08-07T09:14:14.013Z,102703.72
2022-08-07T09:16:47.523Z,102697.22
2022-08-07T09:19:51.798Z,102694.13
2022-08-07T09:24:34.481Z,102696.41
2022-08-07T09:25:56.321Z,102690.09
2022-08-07T09:30:00.792Z,102698.47
2022-08-07T09:31:57.675Z,102694.09
2022-08-07T09:34:53.846Z,102691.47
2022-08-07T09:37:48.275Z,102684.59
2022-08-07T09:40:40.380Z,102687.19
2022-08-07T09:44:03.434Z,102681.31
2022-08-07T09:47:51.887Z,102677.44
2022-08-07T09:50:02.195Z,102675.53
2022-08-07T09:52:51.781Z,102674.97
2022-08-07T09:55:29.632Z,102675.50
2022-08-07T09:58:33.538Z,102671.84
2022-08-07T10:01:51.575Z,102666.63
2022-08-07T10:04:33.839Z,102669.47
2022-08-07T10:07:39.779Z,102660.53
2022-08-07T10:10:43.645Z,102665.31
2022-08-07T10:14:00.458Z,102670.13
2022-08-07T10:16:36.058Z,102660.09
2022-08-07T10:19:11.639Z,102656.00
2022-08-07T10:22:15.404Z,102658.41
2022-08-07T10:25:01.680Z,102655.97
2022-08-07T10:27:30.149Z,102645.38
2022-08-07T10:30:43.052Z,102649.50
2022-08-07T10:34:05.600Z,102642.56
2022-08-07T10:37:03.940Z,102635.84
2022-08-07T10:40:06.153Z,102645.09
2022-08-07T10:42:46.709Z,102644.97
2022-08-07T10:45:48.060Z,102645.75
2022-08-07T10:48:35.030Z,102639.84
2022-08-07T10:51:04.907Z,102635.63
2022-08-07T10:53:58.480Z,102635.47
2022-08-07T10:57:04.657Z,102647.31
2022-08-07T10:59:50.905Z,102639.53
2022-08-07T11:02:34.082Z,102642.59
2022-08-07T11:05:35.731Z,102630.28
2022-08-07T11:08:43.579Z,102636.72
2022-08-07T11:11:16.744Z,102622.06
2022-08-07T11:14:45.310Z,102620.56
2022-08-07T11:17:01.936Z,102620.44
2022-08-07T11:19:55.785Z,102628.03
2022-08-07T11:22:36.046Z,102621.16
2022-08-07T11:25:18.441Z,102610.69
2022-08-07T11:28:01.509Z,102617.69
2022-08-07T11:30:42.288Z,102610.84
2022-08-07T11:33:53.613Z,102613.25
2022-08-07T11:36:30.810Z,102613.53
2022-08-07T11:39:00.623Z,102611.25
2022-08-07T11:42:01.596Z,102610.06
2022-08-07T11:44:36.245Z,102616.03
2022-08-07T11:47:22.855Z,102604.78
2022-08-07T11:50:34.896Z,102601.50
2022-08-07T11:53:43.258Z,102601.34
2022-08-07T11:56:53.053Z,102600.19
2022-08-07T12:00:12.504Z,102602.16
2022-08-07T12:02:32.361Z,102597.66
2022-08-07T12:05:09.091Z,102597.97
2022-08-07T12:07:53.512Z,102597.44
2022-08-07T12:10:42.443Z,102604.97
2022-08-07T12:13:35.680Z,102589.16
2022-08-07T12:16:09.177Z,102591.72
2022-08-07T12:19:14.759Z,102587.53
2022-08-07T12:22:36.191Z,102590.91
2022-08-07T12:25:08.031Z,102591.06
2022-08-07T12:28:09.794Z,102593.38
2022-08-07T12:30:32.744Z,102593.78
2022-08-07T12:33:23.229Z,102596.88
2022-08-07T12:35:57.959Z,102592.78
2022-08-07T12:38:38.477Z,102591.03
2022-08-07T12:41:11.409Z,102590.91
2022-08-07T12:44:04.498Z,102585.56
2022-08-07T12:46:32.749Z,102580.06
2022-08-07T12:49:44.671Z,102590.41
2022-08-07T12:52:28.944Z,102591.91
2022-08-07T12:55:16.454Z,102592.75
2022-08-07T12:58:02.041Z,102584.41
2022-08-07T13:00:49.766Z,102590.25
2022-08-07T13:03:59.364Z,102580.34
2022-08-07T13:07:05.110Z,102577.72
2022-08-07T13:10:19.844Z,102587.63
2022-08-07T13:13:11.830Z,102573.97
2022-08-07T13:16:07.448Z,102578.66
2022-08-07T13:18:53.622Z,102585.72
2022-08-07T13:21:50.504Z,102586.84
2022-08-07T13:24:30.702Z,102579.81
2022-08-07T13:27:20.702Z,102574.00
2022-08-07T13:29:58.354Z,102565.47
2022-08-07T13:32:43.461Z,102570.28
2022-08-07T13:35:25.563Z,102564.09
2022-08-07T13:38:39.145Z,102556.44
2022-08-07T13:41:35.538Z,102555.38
2022-08-07T13:44:10.330Z,102555.81
2022-08-07T13:46:49.322Z,102554.41
2022-08-07T13:50:33.065Z,102560.06
2022-08-07T13:52:30.535Z,102545.88
2022-08-07T13:54:56.111Z,102558.00
2022-08-07T13:57:37.632Z,102553.50
2022-08-07T14:00:07.659Z,102558.72
2022-08-07T14:02:45.719Z,102570.56
2022-08-07T14:05:23.183Z,102564.47
2022-08-07T14:08:00.611Z,102557.81
2022-08-07T14:10:34.896Z,102555.16
2022-08-07T14:13:14.147Z,102544.41
2022-08-07T14:15:50.477Z,102552.00
2022-08-07T14:18:28.551Z,102554.50
2022-08-07T14:21:08.389Z,102543.13
2022-08-07T14:24:00.776Z,102544.75
2022-08-07T14:26:50.756Z,102541.31
2022-08-07T14:30:04.797Z,102543.09
2022-08-07T14:32:12.463Z,102550.16
2022-08-07T14:34:48.052Z,102547.22
2022-08-07T14:37:23.735Z,102540.72
2022-08-07T14:40:17.120Z,102536.06
2022-08-07T14:43:58.259Z,102543.91
2022-08-07T14:46:02.956Z,102544.41
2022-08-07T14:48:34.002Z,102543.88
2022-08-07T14:51:16.038Z,102548.44
2022-08-07T14:54:05.739Z,102536.06
2022-08-07T14:56:33.415Z,102539.84
2022-08-07T14:59:13.861Z,102535.28
2022-08-07T15:01:58.755Z,102539.19
2022-08-07T15:04:25.937Z,102535.38
2022-08-07T15:06:56.971Z,102528.78
2022-08-07T15:12:25.630Z,102526.59
2022-08-07T15:15:17.370Z,102536.72
2022-08-07T15:17:56.280Z,102532.41
2022-08-07T15:23:22.461Z,102528.72
2022-08-07T15:26:10.234Z,102527.72
2022-08-07T15:28:56.609Z,102520.47
2022-08-07T15:32:00.910Z,102521.28
2022-08-07T15:34:14.965Z,102528.25
2022-08-07T15:37:03.875Z,102523.13
2022-08-07T15:39:56.899Z,102517.59
2022-08-07T15:42:51.787Z,102521.28
2022-08-07T15:45:58.175Z,102512.50
2022-08-07T15:48:29.795Z,102509.78
2022-08-07T15:51:01.248Z,102508.72
2022-08-07T15:53:52.333Z,102501.38
2022-08-07T15:56:24.567Z,102497.41
2022-08-07T15:58:53.728Z,102498.94
2022-08-07T16:01:38.505Z,102492.94
2022-08-07T16:04:15.365Z,102490.63
2022-08-07T16:06:52.477Z,102491.34
2022-08-07T16:09:41.076Z,102492.94
2022-08-07T16:12:38.048Z,102490.66
2022-08-07T16:15:54.921Z,102493.22
2022-08-07T16:18:54.346Z,102491.75
2022-08-07T16:21:44.181Z,102495.44
2022-08-07T16:24:38.423Z,102482.59
2022-08-07T16:27:40.271Z,102491.91
2022-08-07T16:30:30.885Z,102492.56
2022-08-07T16:34:02.800Z,102489.09
2022-08-07T16:36:31.373Z,102494.50
2022-08-07T16:39:40.721Z,102490.88
2022-08-07T16:42:36.606Z,102484.09
2022-08-07T16:46:34.588Z,102484.81
2022-08-07T16:49:04.395Z,102478.81
2022-08-07T16:51:52.078Z,102485.94
2022-08-07T16:54:54.968Z,102490.34
2022-08-07T16:58:17.207Z,102488.13
2022-08-07T17:01:15.642Z,102482.78
2022-08-07T17:03:59.828Z,102481.91
2022-08-07T17:07:04.368Z,102482.06
2022-08-07T17:10:07.195Z,102487.47
2022-08-07T17:12:44.366Z,102482.38
2022-08-07T17:15:15.601Z,102495.84
2022-08-07T17:17:48.167Z,102490.75
2022-08-07T17:20:41.753Z,102483.75
2022-08-07T17:23:32.630Z,102484.78
2022-08-07T17:26:30.043Z,102482.00
2022-08-07T17:28:58.450Z,102487.75
2022-08-07T17:32:03.459Z,102481.59
2022-08-07T17:35:33.114Z,102476.22
2022-08-07T17:38:09.687Z,102478.38
2022-08-07T17:41:12.371Z,102477.00
2022-08-07T17:44:02.286Z,102471.19
2022-08-07T17:46:47.192Z,102473.59
2022-08-07T17:49:44.749Z,102472.41
2022-08-07T17:52:31.089Z,102465.13
2022-08-07T17:55:13.716Z,102461.69
2022-08-07T17:57:59.314Z,102471.06
2022-08-07T18:00:34.435Z,102469.44
2022-08-07T18:04:03.992Z,102467.00
2022-08-07T18:06:38.162Z,102464.66
2022-08-07T18:09:06.493Z,102469.56
2022-08-07T18:12:07.333Z,102468.44
2022-08-07T18:14:46.236Z,102477.59
2022-08-07T18:18:45.046Z,102486.41
2022-08-07T18:21:12.641Z,102478.22
2022-08-07T18:23:57.154Z,102483.13
2022-08-07T18:26:51.498Z,102480.31
2022-08-07T18:30:08.294Z,102483.91
2022-08-07T18:32:46.461Z,102485.97
2022-08-07T18:35:57.295Z,102483.09
2022-08-07T18:39:00.874Z,102488.28
2022-08-07T18:42:07.219Z,102493.03
2022-08-07T18:48:00.749Z,102492.28
2022-08-07T18:50:50.550Z,102498.72
2022-08-07T18:53:45.198Z,102505.94
2022-08-07T18:57:23.556Z,102506.22
2022-08-07T19:03:37.470Z,102502.53
2022-08-07T19:06:33.864Z,102502.56
2022-08-07T19:09:55.426Z,102512.91
2022-08-07T19:12:15.597Z,102519.03
2022-08-07T19:15:01.927Z,102517.06
2022-08-07T19:18:17.217Z,102520.13
2022-08-07T19:24:01.359Z,102528.25
2022-08-07T19:26:53.690Z,102532.41
2022-08-07T19:30:56.672Z,102532.03
2022-08-07T19:32:26.023Z,102541.47
2022-08-07T19:35:01.248Z,102551.59
2022-08-07T19:37:57.133Z,102546.81
2022-08-07T19:40:30.994Z,102549.69
2022-08-07T19:43:01.030Z,102551.38
2022-08-07T19:46:01.241Z,102553.88
2022-08-07T19:48:42.768Z,102554.34
2022-08-07T19:51:19.276Z,102554.03
2022-08-07T19:54:31.667Z,102553.25
2022-08-07T19:57:52.207Z,102556.56
2022-08-07T19:59:41.451Z,102552.03
2022-08-07T20:02:15.288Z,102550.56
2022-08-07T20:04:48.901Z,102556.00
2022-08-07T20:07:23.657Z,102550.56
2022-08-07T20:10:36.108Z,102563.69
2022-08-07T20:12:45.524Z,102555.66
2022-08-07T20:15:22.255Z,102556.63
2022-08-07T20:18:01.264Z,102553.47
2022-08-07T20:20:31.467Z,102562.81
2022-08-07T20:23:02.089Z,102552.97
2022-08-07T20:25:52.932Z,102564.94
2022-08-07T20:28:20.640Z,102568.03
2022-08-07T20:30:58.221Z,102564.69
2022-08-07T20:33:37.674Z,102557.66
2022-08-07T20:36:08.858Z,102560.53
2022-08-07T20:38:53.335Z,102560.91
2022-08-07T20:41:27.446Z,102566.34
2022-08-07T20:43:57.467Z,102568.28
2022-08-07T20:46:33.480Z,102560.03
2022-08-07T20:50:00.200Z,102567.75
2022-08-07T20:51:50.811Z,102568.25
2022-08-07T20:54:29.845Z,102568.19
2022-08-07T20:57:03.631Z,102564.72
2022-08-07T21:00:08.178Z,102565.25
2022-08-07T21:02:55.225Z,102568.28
2022-08-07T21:05:42.968Z,102559.59
2022-08-07T21:08:16.465Z,102566.72
2022-08-07T21:10:49.395Z,102567.63
2022-08-07T21:13:57.190Z,102560.41
2022-08-07T21:16:15.841Z,102557.94
2022-08-07T21:18:46.178Z,102560.75
2022-08-07T21:21:21.281Z,102559.94
2022-08-07T21:24:05.772Z,102566.34
2022-08-07T21:27:01.623Z,102566.59
2022-08-07T21:30:05.987Z,102564.22
2022-08-07T21:32:49.433Z,102569.75
2022-08-07T21:36:04.291Z,102553.63
2022-08-07T21:38:46.576Z,102553.63
2022-08-07T21:41:37.843Z,102547.59
2022-08-07T21:44:43.296Z,102559.53
2022-08-07T21:47:27.544Z,102564.09
2022-08-07T21:50:05.042Z,102562.25
2022-08-07T21:52:54.644Z,102565.94
2022-08-07T21:55:28.328Z,102569.88
2022-08-07T21:58:32.483Z,102567.25
2022-08-07T22:01:04.771Z,102570.09
2022-08-07T22:03:42.610Z,102570.38
2022-08-07T22:06:30.323Z,102569.56
2022-08-07T22:09:10.261Z,102577.88
2022-08-07T22:12:05.792Z,102576.28
2022-08-07T22:14:38.959Z,102574.53
2022-08-07T22:17:35.766Z,102583.81
2022-08-07T22:20:23.480Z,102578.69
2022-08-07T22:22:57.283Z,102593.50
2022-08-07T22:26:01.557Z,102583.63
2022-08-07T22:28:48.272Z,102594.09
2022-08-07T22:31:56.213Z,102584.34
2022-08-07T22:34:36.013Z,102588.03
2022-08-07T22:37:16.761Z,102592.69
2022-08-07T22:39:52.976Z,102585.81
2022-08-07T22:42:25.816Z,102580.63
2022-08-07T22:45:02.227Z,102588.59
2022-08-07T22:47:52.117Z,102577.81
2022-08-07T22:50:34.029Z,102578.78
2022-08-07T22:54:07.501Z,102573.41
2022-08-07T22:56:33.798Z,102580.63
2022-08-07T22:59:35.252Z,102573.97
2022-08-07T23:02:13.588Z,102576.00
2022-08-07T23:04:58.006Z,102581.59
2022-08-07T23:08:22.384Z,102575.38
2022-08-07T23:11:18.020Z,102586.38
2022-08-07T23:14:16.207Z,102590.50
2022-08-07T23:17:20.232Z,102595.44
2022-08-07T23:20:51.202Z,102594.72
2022-08-07T23:24:05.290Z,102594.78
2022-08-07T23:26:39.752Z,102591.13
2022-08-07T23:29:43.817Z,102586.72
2022-08-07T23:34:33.888Z,102586.06
2022-08-07T23:36:04.186Z,102589.91
2022-08-07T23:38:43.225Z,102587.25
2022-08-07T23:42:04.152Z,102586.38
2022-08-07T23:44:43.693Z,102592.91
2022-08-07T23:47:22.767Z,102584.66
2022-08-07T23:50:03.940Z,102582.56
2022-08-07T23:53:05.740Z,102582.94
2022-08-07T23:55:53.168Z,102576.63
2022-08-07T23:58:43.033Z,102573.69
